sensor_id;sensor_type;location;lat;lon;timestamp;P1;durP1;ratioP1;P2;durP2;ratioP2
51479;SDS011;37556;44.570;18.612;2023-01-15T07:59:36;7.15;;;6.20;;
51479;SDS011;37556;44.570;18.612;2023-01-15T08:04:29;7.60;;;6.95;;
51479;SDS011;37556;44.570;18.612;2023-01-15T08:06:55;6.03;;;4.43;;
51479;SDS011;37556;44.570;18.612;2023-01-15T08:09:21;11.70;;;5.78;;
51479;SDS011;37556;44.570;18.612;2023-01-15T08:11:49;14.02;;;6.95;;
51479;SDS011;37556;44.570;18.612;2023-01-15T08:14:34;3.78;;;3.50;;
51479;SDS011;37556;44.570;18.612;2023-01-15T08:17:19;6.57;;;3.83;;
51479;SDS011;37556;44.570;18.612;2023-01-15T08:19:45;5.97;;;4.40;;
51479;SDS011;37556;44.570;18.612;2023-01-15T08:22:11;8.35;;;5.95;;
51479;SDS011;37556;44.570;18.612;2023-01-15T08:24:37;5.00;;;3.20;;
51479;SDS011;37556;44.570;18.612;2023-01-15T08:27:03;2.03;;;1.95;;
51479;SDS011;37556;44.570;18.612;2023-01-15T08:29:30;3.80;;;3.55;;
51479;SDS011;37556;44.570;18.612;2023-01-15T08:34:22;2.92;;;2.75;;
51479;SDS011;37556;44.570;18.612;2023-01-15T08:36:48;4.40;;;3.42;;
51479;SDS011;37556;44.570;18.612;2023-01-15T08:39:17;8.18;;;6.32;;
51479;SDS011;37556;44.570;18.612;2023-01-15T08:41:43;5.68;;;5.13;;
51479;SDS011;37556;44.570;18.612;2023-01-15T08:44:09;8.30;;;4.10;;
51479;SDS011;37556;44.570;18.612;2023-01-15T08:46:35;8.98;;;5.57;;
51479;SDS011;37556;44.570;18.612;2023-01-15T08:49:01;6.70;;;4.25;;
51479;SDS011;37556;44.570;18.612;2023-01-15T08:51:27;8.30;;;4.35;;
51479;SDS011;37556;44.570;18.612;2023-01-15T08:53:54;7.30;;;6.20;;
51479;SDS011;37556;44.570;18.612;2023-01-15T08:56:20;2.70;;;2.50;;
51479;SDS011;37556;44.570;18.612;2023-01-15T08:58:46;9.80;;;4.40;;
51479;SDS011;37556;44.570;18.612;2023-01-15T09:03:40;3.33;;;3.10;;
51479;SDS011;37556;44.570;18.612;2023-01-15T09:06:06;7.65;;;5.88;;
51479;SDS011;37556;44.570;18.612;2023-01-15T09:08:33;8.52;;;6.70;;
51479;SDS011;37556;44.570;18.612;2023-01-15T09:11:00;3.65;;;2.65;;
51479;SDS011;37556;44.570;18.612;2023-01-15T09:13:26;8.00;;;4.85;;
51479;SDS011;37556;44.570;18.612;2023-01-15T09:15:53;3.90;;;3.40;;
51479;SDS011;37556;44.570;18.612;2023-01-15T09:18:19;2.63;;;1.77;;
51479;SDS011;37556;44.570;18.612;2023-01-15T09:20:46;5.25;;;4.07;;
51479;SDS011;37556;44.570;18.612;2023-01-15T09:23:12;6.43;;;4.00;;
51479;SDS011;37556;44.570;18.612;2023-01-15T09:28:06;10.05;;;2.90;;
51479;SDS011;37556;44.570;18.612;2023-01-15T09:32:58;14.63;;;6.03;;
51479;SDS011;37556;44.570;18.612;2023-01-15T09:35:24;6.07;;;5.40;;
51479;SDS011;37556;44.570;18.612;2023-01-15T09:37:51;4.47;;;3.22;;
51479;SDS011;37556;44.570;18.612;2023-01-15T09:43:07;7.15;;;5.55;;
51479;SDS011;37556;44.570;18.612;2023-01-15T09:45:42;7.50;;;4.57;;
51479;SDS011;37556;44.570;18.612;2023-01-15T09:48:46;11.70;;;7.65;;
51479;SDS011;37556;44.570;18.612;2023-01-15T09:56:21;10.85;;;6.68;;
51479;SDS011;37556;44.570;18.612;2023-01-15T09:58:48;5.75;;;4.65;;
51479;SDS011;37556;44.570;18.612;2023-01-15T10:01:15;10.27;;;8.18;;
51479;SDS011;37556;44.570;18.612;2023-01-15T10:06:29;3.67;;;3.33;;
51479;SDS011;37556;44.570;18.612;2023-01-15T10:09:01;6.70;;;6.20;;
51479;SDS011;37556;44.570;18.612;2023-01-15T10:11:37;7.57;;;6.88;;
51479;SDS011;37556;44.570;18.612;2023-01-15T10:14:30;13.98;;;8.10;;
51479;SDS011;37556;44.570;18.612;2023-01-15T10:17:02;6.13;;;5.55;;
51479;SDS011;37556;44.570;18.612;2023-01-15T10:21:57;5.07;;;4.50;;
51479;SDS011;37556;44.570;18.612;2023-01-15T10:26:55;7.97;;;7.18;;
51479;SDS011;37556;44.570;18.612;2023-01-15T10:31:51;13.90;;;7.65;;
51479;SDS011;37556;44.570;18.612;2023-01-15T10:37:11;14.05;;;7.78;;
51479;SDS011;37556;44.570;18.612;2023-01-15T10:47:22;26.38;;;12.75;;
51479;SDS011;37556;44.570;18.612;2023-01-15T10:49:51;16.30;;;9.68;;
51479;SDS011;37556;44.570;18.612;2023-01-15T10:54:45;17.23;;;9.93;;
51479;SDS011;37556;44.570;18.612;2023-01-15T10:57:17;27.33;;;14.95;;
51479;SDS011;37556;44.570;18.612;2023-01-15T11:04:50;25.88;;;13.27;;
51479;SDS011;37556;44.570;18.612;2023-01-15T11:07:18;20.70;;;12.13;;
51479;SDS011;37556;44.570;18.612;2023-01-15T11:09:45;14.57;;;12.00;;
51479;SDS011;37556;44.570;18.612;2023-01-15T11:12:20;26.35;;;16.05;;
51479;SDS011;37556;44.570;18.612;2023-01-15T11:14:46;28.67;;;16.42;;
51479;SDS011;37556;44.570;18.612;2023-01-15T11:17:34;16.38;;;10.77;;
51479;SDS011;37556;44.570;18.612;2023-01-15T11:20:53;19.02;;;12.05;;
51479;SDS011;37556;44.570;18.612;2023-01-15T11:23:13;14.82;;;8.82;;
51479;SDS011;37556;44.570;18.612;2023-01-15T11:25:47;14.82;;;9.15;;
51479;SDS011;37556;44.570;18.612;2023-01-15T11:28:14;13.90;;;7.25;;
51479;SDS011;37556;44.570;18.612;2023-01-15T11:30:41;8.95;;;7.07;;
51479;SDS011;37556;44.570;18.612;2023-01-15T11:33:25;9.57;;;8.57;;
51479;SDS011;37556;44.570;18.612;2023-01-15T11:35:57;10.95;;;8.30;;
51479;SDS011;37556;44.570;18.612;2023-01-15T11:38:27;11.48;;;7.10;;
51479;SDS011;37556;44.570;18.612;2023-01-15T11:40:55;8.85;;;6.72;;
51479;SDS011;37556;44.570;18.612;2023-01-15T11:43:23;11.77;;;6.18;;
51479;SDS011;37556;44.570;18.612;2023-01-15T11:46:30;15.45;;;7.68;;
51479;SDS011;37556;44.570;18.612;2023-01-15T11:49:14;8.07;;;6.18;;
51479;SDS011;37556;44.570;18.612;2023-01-15T11:51:59;15.23;;;9.50;;
51479;SDS011;37556;44.570;18.612;2023-01-15T11:54:26;29.17;;;9.75;;
51479;SDS011;37556;44.570;18.612;2023-01-15T11:56:55;11.32;;;7.03;;
51479;SDS011;37556;44.570;18.612;2023-01-15T11:59:21;9.38;;;8.32;;
51479;SDS011;37556;44.570;18.612;2023-01-15T12:02:34;19.25;;;10.23;;
51479;SDS011;37556;44.570;18.612;2023-01-15T12:07:00;13.18;;;8.00;;
51479;SDS011;37556;44.570;18.612;2023-01-15T12:27:57;14.68;;;10.15;;
51479;SDS011;37556;44.570;18.612;2023-01-15T12:33:27;13.40;;;8.43;;
51479;SDS011;37556;44.570;18.612;2023-01-15T12:35:59;19.75;;;10.80;;
51479;SDS011;37556;44.570;18.612;2023-01-15T12:41:03;4.80;;;4.15;;
51479;SDS011;37556;44.570;18.612;2023-01-15T12:43:32;5.15;;;4.78;;
51479;SDS011;37556;44.570;18.612;2023-01-15T12:46:18;8.00;;;5.60;;
51479;SDS011;37556;44.570;18.612;2023-01-15T12:48:48;10.20;;;8.32;;
51479;SDS011;37556;44.570;18.612;2023-01-15T12:51:25;6.50;;;5.43;;
51479;SDS011;37556;44.570;18.612;2023-01-15T12:53:57;6.90;;;5.43;;
51479;SDS011;37556;44.570;18.612;2023-01-15T12:56:43;6.47;;;5.45;;
51479;SDS011;37556;44.570;18.612;2023-01-15T12:59:16;12.25;;;6.22;;
51479;SDS011;37556;44.570;18.612;2023-01-15T13:06:38;14.95;;;6.00;;
51479;SDS011;37556;44.570;18.612;2023-01-15T13:11:51;12.20;;;6.72;;
51479;SDS011;37556;44.570;18.612;2023-01-15T13:21:35;6.88;;;6.30;;
51479;SDS011;37556;44.570;18.612;2023-01-15T13:33:58;6.38;;;5.22;;
51479;SDS011;37556;44.570;18.612;2023-01-15T13:36:31;4.13;;;3.67;;
51479;SDS011;37556;44.570;18.612;2023-01-15T13:38:59;7.60;;;6.00;;
51479;SDS011;37556;44.570;18.612;2023-01-15T13:41:30;4.15;;;3.70;;
51479;SDS011;37556;44.570;18.612;2023-01-15T13:44:16;3.40;;;3.15;;
51479;SDS011;37556;44.570;18.612;2023-01-15T13:46:45;5.45;;;3.85;;
51479;SDS011;37556;44.570;18.612;2023-01-15T13:49:17;7.18;;;3.05;;
51479;SDS011;37556;44.570;18.612;2023-01-15T13:51:46;3.80;;;2.13;;
51479;SDS011;37556;44.570;18.612;2023-01-15T13:54:14;4.40;;;2.92;;
51479;SDS011;37556;44.570;18.612;2023-01-15T13:56:41;6.40;;;4.15;;
51479;SDS011;37556;44.570;18.612;2023-01-15T14:01:53;4.20;;;2.22;;
51479;SDS011;37556;44.570;18.612;2023-01-15T14:06:49;1.25;;;1.25;;
51479;SDS011;37556;44.570;18.612;2023-01-15T14:17:11;2.42;;;2.20;;
51479;SDS011;37556;44.570;18.612;2023-01-15T14:22:09;4.07;;;3.25;;
51479;SDS011;37556;44.570;18.612;2023-01-15T14:35:35;3.50;;;3.20;;
51479;SDS011;37556;44.570;18.612;2023-01-15T14:38:03;2.30;;;2.20;;
51479;SDS011;37556;44.570;18.612;2023-01-15T14:40:31;4.35;;;3.20;;
51479;SDS011;37556;44.570;18.612;2023-01-15T14:43:02;2.25;;;1.58;;
51479;SDS011;37556;44.570;18.612;2023-01-15T14:48:14;3.17;;;2.70;;
51479;SDS011;37556;44.570;18.612;2023-01-15T14:50:42;2.05;;;1.85;;
51479;SDS011;37556;44.570;18.612;2023-01-15T14:55:40;3.60;;;3.30;;
51479;SDS011;37556;44.570;18.612;2023-01-15T15:00:59;3.70;;;2.53;;
51479;SDS011;37556;44.570;18.612;2023-01-15T15:03:32;5.78;;;5.25;;
51479;SDS011;37556;44.570;18.612;2023-01-15T15:05:59;8.98;;;4.93;;
51479;SDS011;37556;44.570;18.612;2023-01-15T15:08:27;7.47;;;3.72;;
51479;SDS011;37556;44.570;18.612;2023-01-15T15:10:54;6.68;;;3.72;;
51479;SDS011;37556;44.570;18.612;2023-01-15T15:13:28;3.85;;;2.50;;
51479;SDS011;37556;44.570;18.612;2023-01-15T15:28:55;5.35;;;3.42;;
51479;SDS011;37556;44.570;18.612;2023-01-15T15:31:21;8.80;;;5.50;;
51479;SDS011;37556;44.570;18.612;2023-01-15T15:33:50;8.70;;;5.15;;
51479;SDS011;37556;44.570;18.612;2023-01-15T15:36:18;2.42;;;2.33;;
51479;SDS011;37556;44.570;18.612;2023-01-15T15:38:55;4.13;;;2.03;;
51479;SDS011;37556;44.570;18.612;2023-01-15T15:41:23;7.55;;;3.15;;
51479;SDS011;37556;44.570;18.612;2023-01-15T15:47:16;11.07;;;8.07;;
51479;SDS011;37556;44.570;18.612;2023-01-15T15:50:01;5.03;;;3.83;;
51479;SDS011;37556;44.570;18.612;2023-01-15T15:52:27;5.10;;;4.57;;
51479;SDS011;37556;44.570;18.612;2023-01-15T15:55:01;3.75;;;2.75;;
51479;SDS011;37556;44.570;18.612;2023-01-15T15:57:30;6.13;;;5.25;;
51479;SDS011;37556;44.570;18.612;2023-01-15T15:59:57;4.18;;;3.47;;
51479;SDS011;37556;44.570;18.612;2023-01-15T16:02:25;6.55;;;4.60;;
51479;SDS011;37556;44.570;18.612;2023-01-15T16:04:55;1.48;;;1.35;;
51479;SDS011;37556;44.570;18.612;2023-01-15T16:07:27;8.52;;;4.28;;
51479;SDS011;37556;44.570;18.612;2023-01-15T16:09:57;5.63;;;4.63;;
51479;SDS011;37556;44.570;18.612;2023-01-15T16:12:24;8.35;;;3.40;;
51479;SDS011;37556;44.570;18.612;2023-01-15T16:14:52;12.00;;;7.38;;
51479;SDS011;37556;44.570;18.612;2023-01-15T16:17:19;7.28;;;4.15;;
51479;SDS011;37556;44.570;18.612;2023-01-15T16:19:45;2.92;;;2.72;;
51479;SDS011;37556;44.570;18.612;2023-01-15T16:24:37;7.15;;;3.97;;
51479;SDS011;37556;44.570;18.612;2023-01-15T16:27:04;9.95;;;7.05;;
51479;SDS011;37556;44.570;18.612;2023-01-15T16:29:36;1.90;;;1.80;;
51479;SDS011;37556;44.570;18.612;2023-01-15T16:32:12;14.63;;;3.88;;
51479;SDS011;37556;44.570;18.612;2023-01-15T16:34:39;10.87;;;6.13;;
51479;SDS011;37556;44.570;18.612;2023-01-15T16:37:14;3.60;;;2.70;;
51479;SDS011;37556;44.570;18.612;2023-01-15T16:39:46;4.50;;;4.07;;
51479;SDS011;37556;44.570;18.612;2023-01-15T16:44:58;8.38;;;6.80;;
51479;SDS011;37556;44.570;18.612;2023-01-15T16:47:26;5.85;;;4.60;;
51479;SDS011;37556;44.570;18.612;2023-01-15T16:49:56;21.88;;;9.35;;
51479;SDS011;37556;44.570;18.612;2023-01-15T16:52:49;5.63;;;3.45;;
51479;SDS011;37556;44.570;18.612;2023-01-15T16:55:37;3.85;;;3.40;;
51479;SDS011;37556;44.570;18.612;2023-01-15T17:00:38;15.88;;;11.32;;
51479;SDS011;37556;44.570;18.612;2023-01-15T17:03:12;6.15;;;3.75;;
51479;SDS011;37556;44.570;18.612;2023-01-15T17:05:38;5.15;;;4.32;;
51479;SDS011;37556;44.570;18.612;2023-01-15T17:10:30;9.18;;;3.63;;
51479;SDS011;37556;44.570;18.612;2023-01-15T17:12:56;4.13;;;3.00;;
51479;SDS011;37556;44.570;18.612;2023-01-15T17:17:50;10.95;;;4.50;;
51479;SDS011;37556;44.570;18.612;2023-01-15T17:20:16;11.10;;;5.18;;
51479;SDS011;37556;44.570;18.612;2023-01-15T17:22:43;4.82;;;4.53;;
51479;SDS011;37556;44.570;18.612;2023-01-15T17:25:26;6.45;;;5.53;;
51479;SDS011;37556;44.570;18.612;2023-01-15T17:27:55;4.70;;;4.07;;
51479;SDS011;37556;44.570;18.612;2023-01-15T17:30:21;8.55;;;3.38;;
51479;SDS011;37556;44.570;18.612;2023-01-15T17:32:58;7.10;;;4.55;;
51479;SDS011;37556;44.570;18.612;2023-01-15T17:35:26;7.32;;;4.70;;
51479;SDS011;37556;44.570;18.612;2023-01-15T17:37:53;6.00;;;3.05;;
51479;SDS011;37556;44.570;18.612;2023-01-15T17:42:45;8.30;;;3.72;;
51479;SDS011;37556;44.570;18.612;2023-01-15T17:45:22;4.45;;;4.07;;
51479;SDS011;37556;44.570;18.612;2023-01-15T17:47:48;5.45;;;4.72;;
51479;SDS011;37556;44.570;18.612;2023-01-15T17:50:14;9.25;;;3.45;;
51479;SDS011;37556;44.570;18.612;2023-01-15T17:52:41;5.38;;;1.98;;
51479;SDS011;37556;44.570;18.612;2023-01-15T17:55:08;6.15;;;4.82;;
51479;SDS011;37556;44.570;18.612;2023-01-15T17:57:53;5.50;;;3.25;;
51479;SDS011;37556;44.570;18.612;2023-01-15T18:00:37;6.57;;;4.35;;
51479;SDS011;37556;44.570;18.612;2023-01-15T18:03:22;4.30;;;3.58;;
51479;SDS011;37556;44.570;18.612;2023-01-15T18:06:08;5.35;;;3.85;;
51479;SDS011;37556;44.570;18.612;2023-01-15T18:08:35;4.72;;;4.32;;
51479;SDS011;37556;44.570;18.612;2023-01-15T18:11:01;15.40;;;11.57;;
51479;SDS011;37556;44.570;18.612;2023-01-15T18:13:28;10.25;;;9.30;;
51479;SDS011;37556;44.570;18.612;2023-01-15T18:15:54;9.07;;;4.95;;
51479;SDS011;37556;44.570;18.612;2023-01-15T18:18:20;4.10;;;3.75;;
51479;SDS011;37556;44.570;18.612;2023-01-15T18:20:46;9.68;;;6.78;;
51479;SDS011;37556;44.570;18.612;2023-01-15T18:23:12;5.38;;;4.68;;
51479;SDS011;37556;44.570;18.612;2023-01-15T18:25:38;6.00;;;3.67;;
51479;SDS011;37556;44.570;18.612;2023-01-15T18:28:10;6.90;;;4.50;;
51479;SDS011;37556;44.570;18.612;2023-01-15T18:30:36;7.85;;;5.25;;
51479;SDS011;37556;44.570;18.612;2023-01-15T18:33:02;8.20;;;6.13;;
51479;SDS011;37556;44.570;18.612;2023-01-15T18:35:29;7.80;;;4.45;;
51479;SDS011;37556;44.570;18.612;2023-01-15T18:37:55;8.25;;;7.20;;
51479;SDS011;37556;44.570;18.612;2023-01-15T18:40:21;7.95;;;6.47;;
51479;SDS011;37556;44.570;18.612;2023-01-15T18:42:54;11.38;;;6.93;;
51479;SDS011;37556;44.570;18.612;2023-01-15T18:45:39;15.48;;;8.13;;
51479;SDS011;37556;44.570;18.612;2023-01-15T18:48:24;23.60;;;7.80;;
51479;SDS011;37556;44.570;18.612;2023-01-15T18:53:19;7.25;;;2.92;;
51479;SDS011;37556;44.570;18.612;2023-01-15T18:55:45;3.30;;;3.17;;
51479;SDS011;37556;44.570;18.612;2023-01-15T18:58:11;6.20;;;3.97;;
51479;SDS011;37556;44.570;18.612;2023-01-15T19:00:37;9.85;;;6.15;;
51479;SDS011;37556;44.570;18.612;2023-01-15T19:03:03;14.73;;;6.47;;
51479;SDS011;37556;44.570;18.612;2023-01-15T19:05:30;7.47;;;4.38;;
51479;SDS011;37556;44.570;18.612;2023-01-15T19:07:56;10.50;;;5.53;;
51479;SDS011;37556;44.570;18.612;2023-01-15T19:12:48;8.93;;;6.20;;
51479;SDS011;37556;44.570;18.612;2023-01-15T19:15:16;7.13;;;3.08;;
51479;SDS011;37556;44.570;18.612;2023-01-15T19:18:01;9.45;;;5.03;;
51479;SDS011;37556;44.570;18.612;2023-01-15T19:20:46;4.78;;;3.78;;
51479;SDS011;37556;44.570;18.612;2023-01-15T19:25:39;8.77;;;3.22;;
51479;SDS011;37556;44.570;18.612;2023-01-15T19:28:07;2.75;;;2.63;;
51479;SDS011;37556;44.570;18.612;2023-01-15T19:30:35;3.80;;;3.50;;
51479;SDS011;37556;44.570;18.612;2023-01-15T19:33:01;6.80;;;4.78;;
51479;SDS011;37556;44.570;18.612;2023-01-15T19:35:28;6.43;;;5.60;;
51479;SDS011;37556;44.570;18.612;2023-01-15T19:37:54;9.15;;;6.60;;
51479;SDS011;37556;44.570;18.612;2023-01-15T19:40:21;4.82;;;3.95;;
51479;SDS011;37556;44.570;18.612;2023-01-15T19:42:48;8.40;;;4.82;;
51479;SDS011;37556;44.570;18.612;2023-01-15T19:45:33;8.43;;;6.43;;
51479;SDS011;37556;44.570;18.612;2023-01-15T19:48:18;9.40;;;8.48;;
51479;SDS011;37556;44.570;18.612;2023-01-15T19:51:03;15.25;;;8.05;;
51479;SDS011;37556;44.570;18.612;2023-01-15T19:53:31;14.93;;;8.73;;
51479;SDS011;37556;44.570;18.612;2023-01-15T19:55:58;12.02;;;8.55;;
51479;SDS011;37556;44.570;18.612;2023-01-15T19:58:24;12.00;;;10.05;;
51479;SDS011;37556;44.570;18.612;2023-01-15T20:00:50;16.10;;;10.27;;
51479;SDS011;37556;44.570;18.612;2023-01-15T20:03:17;21.33;;;12.90;;
51479;SDS011;37556;44.570;18.612;2023-01-15T20:05:43;15.88;;;10.40;;
51479;SDS011;37556;44.570;18.612;2023-01-15T20:08:11;15.40;;;9.45;;
51479;SDS011;37556;44.570;18.612;2023-01-15T20:10:39;19.40;;;12.98;;
51479;SDS011;37556;44.570;18.612;2023-01-15T20:13:05;26.63;;;12.88;;
51479;SDS011;37556;44.570;18.612;2023-01-15T20:15:49;27.38;;;16.40;;
51479;SDS011;37556;44.570;18.612;2023-01-15T20:18:16;15.93;;;11.93;;
51479;SDS011;37556;44.570;18.612;2023-01-15T20:20:42;7.18;;;5.32;;
51479;SDS011;37556;44.570;18.612;2023-01-15T20:23:08;17.80;;;6.43;;
51479;SDS011;37556;44.570;18.612;2023-01-15T20:25:35;8.38;;;5.38;;
51479;SDS011;37556;44.570;18.612;2023-01-15T20:28:01;10.90;;;9.57;;
51479;SDS011;37556;44.570;18.612;2023-01-15T20:32:54;19.33;;;7.70;;
51479;SDS011;37556;44.570;18.612;2023-01-15T20:35:23;12.00;;;8.95;;
51479;SDS011;37556;44.570;18.612;2023-01-15T20:37:50;14.75;;;11.45;;
51479;SDS011;37556;44.570;18.612;2023-01-15T20:40:17;21.67;;;16.80;;
51479;SDS011;37556;44.570;18.612;2023-01-15T20:42:45;15.65;;;11.18;;
51479;SDS011;37556;44.570;18.612;2023-01-15T20:45:29;15.88;;;12.25;;
51479;SDS011;37556;44.570;18.612;2023-01-15T20:47:55;18.83;;;12.25;;
51479;SDS011;37556;44.570;18.612;2023-01-15T20:50:38;19.45;;;10.93;;
51479;SDS011;37556;44.570;18.612;2023-01-15T20:53:05;26.30;;;14.00;;
51479;SDS011;37556;44.570;18.612;2023-01-15T20:55:32;46.67;;;18.10;;
51479;SDS011;37556;44.570;18.612;2023-01-15T20:57:58;20.00;;;13.88;;
51479;SDS011;37556;44.570;18.612;2023-01-15T21:00:24;17.85;;;12.95;;
51479;SDS011;37556;44.570;18.612;2023-01-15T21:05:19;37.70;;;16.58;;
51479;SDS011;37556;44.570;18.612;2023-01-15T21:10:11;32.33;;;18.23;;
51479;SDS011;37556;44.570;18.612;2023-01-15T21:12:37;34.13;;;16.27;;
51479;SDS011;37556;44.570;18.612;2023-01-15T21:15:04;20.40;;;11.63;;
51479;SDS011;37556;44.570;18.612;2023-01-15T21:19:56;52.15;;;17.48;;
51479;SDS011;37556;44.570;18.612;2023-01-15T21:22:22;44.30;;;18.45;;
51479;SDS011;37556;44.570;18.612;2023-01-15T21:24:48;30.77;;;15.93;;
51479;SDS011;37556;44.570;18.612;2023-01-15T21:27:14;22.75;;;15.13;;
51479;SDS011;37556;44.570;18.612;2023-01-15T21:29:40;22.23;;;15.35;;
51479;SDS011;37556;44.570;18.612;2023-01-15T21:32:06;17.38;;;10.57;;
51479;SDS011;37556;44.570;18.612;2023-01-15T21:34:33;21.38;;;11.23;;
51479;SDS011;37556;44.570;18.612;2023-01-15T21:36:59;21.95;;;12.85;;
51479;SDS011;37556;44.570;18.612;2023-01-15T21:39:25;29.88;;;13.90;;
51479;SDS011;37556;44.570;18.612;2023-01-15T21:44:36;20.33;;;13.48;;
51479;SDS011;37556;44.570;18.612;2023-01-15T21:47:16;19.38;;;9.35;;
51479;SDS011;37556;44.570;18.612;2023-01-15T21:49:43;10.07;;;8.95;;
51479;SDS011;37556;44.570;18.612;2023-01-15T21:54:35;12.65;;;5.30;;
51479;SDS011;37556;44.570;18.612;2023-01-15T21:57:01;13.18;;;5.95;;
51479;SDS011;37556;44.570;18.612;2023-01-15T22:01:54;11.90;;;6.35;;
51479;SDS011;37556;44.570;18.612;2023-01-15T22:04:21;10.85;;;8.32;;
51479;SDS011;37556;44.570;18.612;2023-01-15T22:06:50;5.57;;;5.13;;
51479;SDS011;37556;44.570;18.612;2023-01-15T22:09:17;7.57;;;5.18;;
51479;SDS011;37556;44.570;18.612;2023-01-15T22:11:44;12.20;;;7.65;;
51479;SDS011;37556;44.570;18.612;2023-01-15T22:16:36;15.82;;;6.25;;
51479;SDS011;37556;44.570;18.612;2023-01-15T22:19:02;20.63;;;9.30;;
51479;SDS011;37556;44.570;18.612;2023-01-15T22:21:29;14.40;;;7.07;;
51479;SDS011;37556;44.570;18.612;2023-01-15T22:26:21;5.78;;;3.90;;
51479;SDS011;37556;44.570;18.612;2023-01-15T22:28:50;14.25;;;8.35;;
51479;SDS011;37556;44.570;18.612;2023-01-15T22:31:16;8.05;;;6.82;;
51479;SDS011;37556;44.570;18.612;2023-01-15T22:33:43;6.15;;;5.43;;
51479;SDS011;37556;44.570;18.612;2023-01-15T22:36:09;10.20;;;7.07;;
51479;SDS011;37556;44.570;18.612;2023-01-15T22:38:38;6.82;;;5.80;;
51479;SDS011;37556;44.570;18.612;2023-01-15T22:41:04;5.93;;;5.22;;
51479;SDS011;37556;44.570;18.612;2023-01-15T22:43:31;5.70;;;4.95;;
51479;SDS011;37556;44.570;18.612;2023-01-15T22:46:07;6.55;;;5.93;;
51479;SDS011;37556;44.570;18.612;2023-01-15T22:48:33;9.77;;;6.72;;
51479;SDS011;37556;44.570;18.612;2023-01-15T22:50:59;5.90;;;3.53;;
51479;SDS011;37556;44.570;18.612;2023-01-15T22:53:25;11.77;;;5.55;;
51479;SDS011;37556;44.570;18.612;2023-01-15T22:55:55;13.73;;;7.88;;
51479;SDS011;37556;44.570;18.612;2023-01-15T22:58:21;8.50;;;7.18;;
51479;SDS011;37556;44.570;18.612;2023-01-15T23:00:52;17.15;;;11.15;;
51479;SDS011;37556;44.570;18.612;2023-01-15T23:03:21;11.13;;;5.20;;
51479;SDS011;37556;44.570;18.612;2023-01-15T23:05:47;15.07;;;7.25;;
51479;SDS011;37556;44.570;18.612;2023-01-15T23:08:13;13.30;;;8.18;;
51479;SDS011;37556;44.570;18.612;2023-01-15T23:10:40;8.75;;;6.68;;
51479;SDS011;37556;44.570;18.612;2023-01-15T23:13:08;7.45;;;6.75;;
51479;SDS011;37556;44.570;18.612;2023-01-15T23:15:35;25.83;;;13.50;;
51479;SDS011;37556;44.570;18.612;2023-01-15T23:18:01;16.17;;;9.50;;
51479;SDS011;37556;44.570;18.612;2023-01-15T23:20:27;13.07;;;7.65;;
51479;SDS011;37556;44.570;18.612;2023-01-15T23:22:53;8.63;;;6.70;;
51479;SDS011;37556;44.570;18.612;2023-01-15T23:25:19;7.95;;;6.18;;
51479;SDS011;37556;44.570;18.612;2023-01-15T23:27:46;14.85;;;6.10;;
51479;SDS011;37556;44.570;18.612;2023-01-15T23:30:12;10.15;;;6.78;;
51479;SDS011;37556;44.570;18.612;2023-01-15T23:32:38;14.60;;;7.47;;
51479;SDS011;37556;44.570;18.612;2023-01-15T23:35:07;11.77;;;10.70;;
51479;SDS011;37556;44.570;18.612;2023-01-15T23:37:33;10.38;;;6.95;;
51479;SDS011;37556;44.570;18.612;2023-01-15T23:39:59;10.23;;;7.85;;
51479;SDS011;37556;44.570;18.612;2023-01-15T23:42:26;20.95;;;11.73;;
51479;SDS011;37556;44.570;18.612;2023-01-15T23:45:10;12.65;;;7.80;;
51479;SDS011;37556;44.570;18.612;2023-01-15T23:47:55;12.60;;;7.03;;
51479;SDS011;37556;44.570;18.612;2023-01-15T23:50:21;15.00;;;10.20;;
51479;SDS011;37556;44.570;18.612;2023-01-15T23:52:48;19.17;;;8.65;;
51479;SDS011;37556;44.570;18.612;2023-01-15T23:55:15;20.17;;;9.60;;
51479;SDS011;37556;44.570;18.612;2023-01-15T23:57:41;15.60;;;9.30;;
